createdAt,value
2023-01-08T00:01:08.744Z,15.47
2023-01-08T00:03:37.690Z,15.52
2023-01-08T00:06:08.870Z,15.43
2023-01-08T00:08:36.935Z,15.39
2023-01-08T00:11:05.039Z,15.57
2023-01-08T00:13:33.073Z,15.55
2023-01-08T00:16:04.840Z,15.46
2023-01-08T00:18:33.042Z,15.36
2023-01-08T00:21:01.466Z,15.33
2023-01-08T00:23:30.936Z,15.08
2023-01-08T00:26:01.624Z,15.27
2023-01-08T00:28:29.759Z,15.42
2023-01-08T00:30:57.858Z,15.44
2023-01-08T00:33:25.968Z,15.32
2023-01-08T00:35:53.994Z,15.51
2023-01-08T00:38:25.935Z,15.39
2023-01-08T00:40:55.876Z,15.37
2023-01-08T00:43:23.919Z,15.36
2023-01-08T00:45:54.067Z,15.36
2023-01-08T00:48:22.873Z,15.47
2023-01-08T00:50:51.150Z,15.53
2023-01-08T00:53:19.772Z,15.36
2023-01-08T00:55:48.035Z,15.34
2023-01-08T00:58:17.649Z,15.22
2023-01-08T01:00:45.795Z,15.27
2023-01-08T01:03:13.815Z,15.42
2023-01-08T01:05:41.835Z,15.27
2023-01-08T01:08:09.916Z,15.44
2023-01-08T01:10:40.311Z,15.43
2023-01-08T01:13:08.561Z,15.27
2023-01-08T01:15:37.990Z,15.36
2023-01-08T01:18:06.149Z,15.32
2023-01-08T01:20:34.642Z,15.45
2023-01-08T01:23:02.646Z,15.47
2023-01-08T01:25:30.734Z,15.32
2023-01-08T01:27:58.791Z,15.33
2023-01-08T01:30:26.802Z,15.40
2023-01-08T01:32:56.475Z,15.36
2023-01-08T01:35:24.513Z,15.49
2023-01-08T01:37:52.525Z,15.46
2023-01-08T01:40:20.599Z,15.25
2023-01-08T01:42:48.630Z,15.36
2023-01-08T01:45:21.181Z,15.40
2023-01-08T01:47:53.394Z,15.51
2023-01-08T01:50:27.568Z,15.59
2023-01-08T01:53:01.910Z,15.47
2023-01-08T01:55:31.707Z,15.60
2023-01-08T01:58:05.057Z,15.60
2023-01-08T02:00:35.088Z,15.56
2023-01-08T02:03:03.784Z,15.54
2023-01-08T02:05:40.475Z,15.54
2023-01-08T02:08:12.437Z,15.60
2023-01-08T02:10:48.538Z,15.43
2023-01-08T02:13:21.661Z,15.36
2023-01-08T02:15:56.848Z,15.48
2023-01-08T02:18:32.369Z,15.43
2023-01-08T02:21:06.115Z,15.54
2023-01-08T02:23:42.763Z,15.49
2023-01-08T02:26:17.536Z,15.44
2023-01-08T02:28:49.147Z,15.45
2023-01-08T02:31:18.919Z,15.38
2023-01-08T02:33:47.061Z,15.29
2023-01-08T02:36:38.473Z,15.26
2023-01-08T02:39:28.312Z,15.19
2023-01-08T02:42:07.934Z,14.91
2023-01-08T02:44:46.022Z,14.95
2023-01-08T02:47:20.751Z,14.95
2023-01-08T02:49:55.699Z,14.92
2023-01-08T02:52:26.944Z,14.88
2023-01-08T02:54:56.796Z,14.62
2023-01-08T02:57:27.040Z,14.29
2023-01-08T02:59:56.053Z,13.97
2023-01-08T03:02:24.533Z,14.12
2023-01-08T03:04:55.780Z,14.11
2023-01-08T03:07:23.854Z,13.91
2023-01-08T03:09:52.895Z,13.98
2023-01-08T03:12:30.588Z,13.98
2023-01-08T03:15:02.210Z,14.04
2023-01-08T03:17:33.780Z,13.88
2023-01-08T03:20:06.020Z,13.89
2023-01-08T03:22:36.649Z,13.96
2023-01-08T03:25:07.080Z,13.95
2023-01-08T03:27:41.014Z,13.77
2023-01-08T03:30:11.316Z,13.92
2023-01-08T03:32:41.475Z,13.99
2023-01-08T03:35:12.803Z,13.98
2023-01-08T03:37:45.232Z,13.89
2023-01-08T03:40:18.938Z,13.84
2023-01-08T03:42:48.559Z,13.84
2023-01-08T03:45:16.794Z,13.88
2023-01-08T03:47:46.541Z,13.82
2023-01-08T03:50:18.783Z,13.91
2023-01-08T03:52:46.870Z,14.00
2023-01-08T03:55:14.858Z,13.91
2023-01-08T03:57:42.890Z,13.88
2023-01-08T04:00:13.586Z,13.83
2023-01-08T04:02:42.247Z,13.91
2023-01-08T04:05:11.211Z,14.01
2023-01-08T04:07:39.274Z,14.04
2023-01-08T04:10:08.295Z,13.95
2023-01-08T04:12:36.357Z,13.94
2023-01-08T04:15:04.745Z,13.97
2023-01-08T04:17:34.161Z,14.04
2023-01-08T04:20:02.252Z,14.08
2023-01-08T04:22:30.326Z,14.08
2023-01-08T04:24:58.339Z,14.04
2023-01-08T04:27:26.320Z,14.04
2023-01-08T04:29:54.369Z,14.04
2023-01-08T04:32:22.530Z,14.10
2023-01-08T04:34:51.893Z,14.12
2023-01-08T04:37:19.971Z,14.13
2023-01-08T04:39:48.001Z,14.14
2023-01-08T04:42:16.019Z,14.12
2023-01-08T04:44:44.087Z,14.20
2023-01-08T04:47:12.119Z,14.04
2023-01-08T04:49:40.139Z,14.13
2023-01-08T04:52:09.555Z,14.15
2023-01-08T04:54:37.563Z,14.25
2023-01-08T04:57:05.922Z,14.34
2023-01-08T04:59:33.970Z,14.34
2023-01-08T05:02:02.114Z,14.40
2023-01-08T05:04:30.280Z,14.48
2023-01-08T05:06:58.227Z,14.48
2023-01-08T05:09:27.629Z,14.43
2023-01-08T05:11:55.653Z,14.10
2023-01-08T05:14:23.681Z,14.30
2023-01-08T05:16:51.746Z,14.21
2023-01-08T05:19:19.777Z,14.17
2023-01-08T05:21:47.840Z,14.19
2023-01-08T05:24:15.975Z,14.25
2023-01-08T05:26:45.408Z,14.32
2023-01-08T05:29:13.653Z,14.36
2023-01-08T05:31:41.691Z,14.32
2023-01-08T05:34:09.674Z,14.28
2023-01-08T05:36:37.719Z,14.25
2023-01-08T05:39:05.788Z,14.28
2023-01-08T05:41:34.099Z,14.34
2023-01-08T05:44:03.517Z,14.26
2023-01-08T05:46:31.578Z,14.38
2023-01-08T05:48:59.659Z,14.25
2023-01-08T05:51:27.699Z,14.33
2023-01-08T05:53:55.718Z,14.22
2023-01-08T05:56:23.732Z,14.25
2023-01-08T05:58:55.055Z,14.34
2023-01-08T06:01:24.565Z,14.24
2023-01-08T06:03:55.728Z,14.19
2023-01-08T06:06:23.816Z,14.04
2023-01-08T06:08:51.847Z,14.05
2023-01-08T06:11:19.916Z,14.12
2023-01-08T06:13:47.919Z,14.26
2023-01-08T06:16:17.536Z,14.27
2023-01-08T06:18:46.931Z,14.30
2023-01-08T06:21:14.963Z,14.33
2023-01-08T06:23:43.027Z,14.09
2023-01-08T06:26:11.221Z,14.20
2023-01-08T06:28:39.250Z,14.30
2023-01-08T06:31:07.292Z,14.28
2023-01-08T06:33:35.398Z,14.35
2023-01-08T06:36:06.290Z,14.40
2023-01-08T06:38:34.940Z,14.34
2023-01-08T06:41:06.122Z,14.32
2023-01-08T06:43:36.318Z,14.32
2023-01-08T06:46:05.225Z,14.25
2023-01-08T06:48:33.295Z,14.32
2023-01-08T06:51:01.631Z,14.36
2023-01-08T06:53:31.308Z,14.34
2023-01-08T06:55:59.485Z,14.23
2023-01-08T06:58:29.110Z,14.29
2023-01-08T07:00:58.954Z,14.29
2023-01-08T07:03:27.133Z,14.33
2023-01-08T07:05:55.725Z,14.15
2023-01-08T07:08:23.748Z,14.04
2023-01-08T07:10:53.208Z,14.15
2023-01-08T07:13:22.732Z,14.17
2023-01-08T07:15:50.855Z,14.17
2023-01-08T07:18:18.984Z,14.07
2023-01-08T07:20:47.004Z,14.18
2023-01-08T07:23:15.071Z,14.13
2023-01-08T07:25:43.115Z,14.23
2023-01-08T07:28:14.335Z,14.22
2023-01-08T07:30:43.247Z,14.15
2023-01-08T07:33:11.258Z,14.08
2023-01-08T07:35:39.363Z,14.17
2023-01-08T07:38:07.489Z,14.19
2023-01-08T07:40:36.841Z,14.14
2023-01-08T07:43:06.728Z,14.18
2023-01-08T07:45:36.106Z,14.19
2023-01-08T07:48:04.173Z,14.12
2023-01-08T07:50:32.573Z,14.11
2023-01-08T07:53:01.398Z,13.90
2023-01-08T07:55:30.849Z,13.82
2023-01-08T07:57:59.396Z,13.76
2023-01-08T08:00:27.992Z,13.79
2023-01-08T08:03:02.970Z,13.74
2023-01-08T08:05:31.079Z,13.70
2023-01-08T08:07:59.120Z,13.69
2023-01-08T08:10:27.176Z,13.73
2023-01-08T08:12:55.221Z,13.77
2023-01-08T08:15:23.252Z,13.73
2023-01-08T08:17:51.409Z,13.73
2023-01-08T08:20:20.797Z,13.71
2023-01-08T08:22:48.825Z,13.73
2023-01-08T08:25:17.119Z,13.67
2023-01-08T08:27:46.244Z,13.76
2023-01-08T08:30:15.405Z,13.85
2023-01-08T08:32:43.540Z,13.94
2023-01-08T08:35:12.691Z,13.97
2023-01-08T08:37:42.119Z,13.95
2023-01-08T08:40:10.865Z,13.99
2023-01-08T08:42:38.955Z,14.06
2023-01-08T08:45:08.227Z,14.01
2023-01-08T08:47:36.326Z,14.11
2023-01-08T08:50:05.060Z,14.05
2023-01-08T08:52:33.256Z,14.03
2023-01-08T08:55:02.675Z,14.01
2023-01-08T08:57:30.700Z,14.03
2023-01-08T09:00:00.961Z,14.00
2023-01-08T09:02:29.410Z,13.88
2023-01-08T09:04:57.671Z,14.00
2023-01-08T09:07:25.714Z,14.06
2023-01-08T09:09:53.707Z,13.85
2023-01-08T09:12:23.101Z,13.80
2023-01-08T09:14:51.765Z,13.97
2023-01-08T09:17:21.473Z,13.94
2023-01-08T09:19:49.600Z,13.99
2023-01-08T09:22:17.662Z,14.08
2023-01-08T09:24:46.819Z,14.09
2023-01-08T09:27:15.563Z,14.08
2023-01-08T09:29:45.303Z,14.13
2023-01-08T09:32:13.573Z,14.17
2023-01-08T09:34:42.065Z,14.18
2023-01-08T09:37:10.395Z,14.20
2023-01-08T09:39:41.132Z,14.07
2023-01-08T09:42:14.643Z,14.24
2023-01-08T09:44:47.387Z,14.19
2023-01-08T09:47:26.115Z,14.26
2023-01-08T09:49:57.400Z,14.44
2023-01-08T09:52:25.848Z,14.48
2023-01-08T09:54:54.651Z,14.60
2023-01-08T09:57:23.609Z,14.64
2023-01-08T09:59:53.290Z,14.75
2023-01-08T10:02:24.615Z,14.92
2023-01-08T10:04:56.198Z,15.17
2023-01-08T10:07:26.329Z,15.75
2023-01-08T10:09:55.918Z,16.22
2023-01-08T10:12:28.479Z,16.86
2023-01-08T10:15:03.062Z,17.36
2023-01-08T10:17:38.531Z,17.96
2023-01-08T10:20:13.280Z,18.28
2023-01-08T10:22:41.820Z,18.56
2023-01-08T10:25:13.221Z,18.59
2023-01-08T10:27:52.425Z,18.69
2023-01-08T10:30:23.769Z,18.87
2023-01-08T10:32:54.787Z,18.96
2023-01-08T10:35:33.062Z,18.84
2023-01-08T10:38:01.954Z,18.79
2023-01-08T10:40:37.943Z,18.97
2023-01-08T10:43:13.942Z,19.06
2023-01-08T10:45:46.721Z,19.43
2023-01-08T10:48:19.367Z,19.38
2023-01-08T10:50:48.651Z,19.56
2023-01-08T10:53:26.006Z,19.25
2023-01-08T10:56:01.249Z,19.22
2023-01-08T10:58:30.363Z,19.22
2023-01-08T11:01:11.223Z,19.09
2023-01-08T11:03:39.812Z,19.55
2023-01-08T11:06:20.339Z,19.66
2023-01-08T11:08:52.583Z,19.41
2023-01-08T11:11:21.718Z,18.88
2023-01-08T11:13:58.091Z,18.39
2023-01-08T11:16:35.724Z,17.98
2023-01-08T11:19:04.939Z,17.59
2023-01-08T11:21:36.220Z,17.25
2023-01-08T11:24:18.180Z,17.13
2023-01-08T11:26:52.002Z,17.22
2023-01-08T11:29:27.682Z,17.53
2023-01-08T11:32:08.902Z,17.54
2023-01-08T11:34:51.479Z,17.43
2023-01-08T11:37:23.699Z,17.24
2023-01-08T11:39:53.530Z,17.31
2023-01-08T11:42:33.787Z,17.58
2023-01-08T11:45:13.924Z,18.00
2023-01-08T11:48:02.933Z,18.77
2023-01-08T11:50:39.307Z,18.89
2023-01-08T11:53:16.555Z,19.10
2023-01-08T11:55:54.030Z,19.59
2023-01-08T11:58:35.836Z,19.55
2023-01-08T12:01:26.576Z,19.45
2023-01-08T12:04:15.853Z,19.06
2023-01-08T12:06:50.080Z,19.27
2023-01-08T12:09:28.435Z,19.46
2023-01-08T12:12:02.621Z,19.51
2023-01-08T12:14:42.837Z,19.76
2023-01-08T12:17:38.017Z,19.31
2023-01-08T12:20:22.061Z,19.60
2023-01-08T12:23:01.356Z,19.16
2023-01-08T12:25:54.068Z,19.09
2023-01-08T12:29:07.168Z,18.50
2023-01-08T12:32:06.595Z,18.11
2023-01-08T12:34:43.155Z,18.15
2023-01-08T12:37:19.345Z,18.17
2023-01-08T12:39:56.726Z,18.32
2023-01-08T12:42:30.914Z,18.58
2023-01-08T12:45:02.054Z,19.00
2023-01-08T12:47:34.277Z,19.12
2023-01-08T12:50:26.459Z,19.13
2023-01-08T12:53:02.307Z,19.45
2023-01-08T12:55:41.421Z,19.46
2023-01-08T12:58:22.272Z,19.33
2023-01-08T13:00:57.821Z,19.13
2023-01-08T13:03:29.392Z,19.40
2023-01-08T13:06:11.194Z,19.41
2023-01-08T13:08:42.381Z,19.36
2023-01-08T13:11:10.972Z,18.93
2023-01-08T13:13:44.331Z,18.81
2023-01-08T13:16:24.576Z,18.91
2023-01-08T13:18:54.961Z,18.89
2023-01-08T13:21:32.023Z,19.08
2023-01-08T13:24:20.973Z,19.24
2023-01-08T13:26:49.405Z,19.28
2023-01-08T13:29:39.484Z,19.22
2023-01-08T13:32:24.665Z,19.07
2023-01-08T13:35:04.012Z,18.94
2023-01-08T13:37:32.479Z,18.54
2023-01-08T13:40:04.061Z,18.26
2023-01-08T13:42:32.742Z,18.09
2023-01-08T13:45:03.093Z,18.05
2023-01-08T13:47:33.520Z,18.29
2023-01-08T13:50:04.267Z,18.26
2023-01-08T13:52:37.721Z,17.96
2023-01-08T13:55:15.319Z,17.77
2023-01-08T13:57:46.782Z,17.48
2023-01-08T14:00:25.732Z,17.24
2023-01-08T14:02:55.308Z,17.47
2023-01-08T14:05:27.076Z,17.64
2023-01-08T14:07:55.875Z,17.63
2023-01-08T14:10:27.074Z,17.73
2023-01-08T14:12:57.975Z,17.88
2023-01-08T14:15:28.428Z,17.99
2023-01-08T14:17:58.086Z,17.76
2023-01-08T14:20:33.061Z,17.37
2023-01-08T14:23:02.254Z,17.09
2023-01-08T14:25:32.158Z,16.75
2023-01-08T14:28:02.444Z,16.57
2023-01-08T14:30:31.471Z,16.48
2023-01-08T14:33:01.347Z,16.12
2023-01-08T14:35:34.285Z,15.99
2023-01-08T14:38:03.507Z,15.96
2023-01-08T14:40:37.090Z,15.92
2023-01-08T14:43:10.925Z,15.88
2023-01-08T14:45:41.069Z,15.84
2023-01-08T14:48:18.021Z,15.77
2023-01-08T14:51:01.227Z,15.67
2023-01-08T14:53:33.360Z,15.73
2023-01-08T14:56:03.873Z,15.72
2023-01-08T14:58:38.435Z,15.61
2023-01-08T15:01:15.513Z,15.57
2023-01-08T15:03:45.635Z,15.55
2023-01-08T15:06:24.539Z,15.28
2023-01-08T15:08:53.106Z,15.11
2023-01-08T15:11:25.098Z,15.13
2023-01-08T15:13:54.723Z,15.11
2023-01-08T15:16:30.010Z,14.99
2023-01-08T15:19:03.969Z,14.95
2023-01-08T15:21:32.737Z,14.87
2023-01-08T15:24:02.573Z,14.77
2023-01-08T15:26:32.959Z,14.74
2023-01-08T15:29:03.274Z,14.79
2023-01-08T15:31:33.496Z,14.82
2023-01-08T16:00:37.852Z,14.27
2023-01-08T16:03:08.311Z,14.33
2023-01-08T16:05:37.105Z,14.27
2023-01-08T16:08:05.919Z,14.21
2023-01-08T16:10:34.582Z,14.23
2023-01-08T16:13:03.453Z,14.22
2023-01-08T16:15:32.863Z,14.20
2023-01-08T16:18:00.955Z,14.13
2023-01-08T16:20:29.091Z,14.09
2023-01-08T16:22:57.800Z,14.07
2023-01-08T16:25:25.992Z,14.07
2023-01-08T16:27:54.032Z,14.03
2023-01-08T16:30:22.303Z,13.86
2023-01-08T16:32:54.372Z,13.83
2023-01-08T16:35:23.019Z,13.82
2023-01-08T16:37:51.143Z,13.77
2023-01-08T16:40:19.379Z,13.75
2023-01-08T16:42:47.401Z,13.78
2023-01-08T16:45:15.435Z,13.82
2023-01-08T16:47:43.549Z,13.66
2023-01-08T16:50:15.022Z,13.67
2023-01-08T16:52:45.349Z,13.55
2023-01-08T16:55:13.363Z,13.56
2023-01-08T16:57:41.410Z,13.52
2023-01-08T17:00:11.894Z,13.53
2023-01-08T17:02:39.976Z,13.58
2023-01-08T17:05:08.671Z,13.50
2023-01-08T17:07:38.201Z,13.60
2023-01-08T17:10:07.427Z,13.53
2023-01-08T17:12:35.629Z,13.52
2023-01-08T17:15:03.757Z,13.37
2023-01-08T17:17:31.912Z,13.26
2023-01-08T17:20:02.007Z,13.36
2023-01-08T17:22:30.247Z,13.38
2023-01-08T17:24:59.719Z,13.35
2023-01-08T17:27:27.761Z,13.25
2023-01-08T17:29:55.817Z,13.24
2023-01-08T17:32:24.050Z,13.29
2023-01-08T17:34:52.078Z,13.32
2023-01-08T17:37:20.166Z,13.32
2023-01-08T17:39:49.538Z,13.23
2023-01-08T17:42:28.300Z,13.21
2023-01-08T17:44:57.769Z,13.14
2023-01-08T17:47:26.642Z,13.01
2023-01-08T17:49:56.228Z,13.15
2023-01-08T17:52:26.520Z,13.10
2023-01-08T17:54:54.765Z,13.10
2023-01-08T17:57:24.623Z,12.99
2023-01-08T17:59:52.689Z,13.05
2023-01-08T18:02:20.950Z,12.93
2023-01-08T18:04:49.497Z,12.92
2023-01-08T18:07:18.247Z,12.91
2023-01-08T18:09:46.323Z,12.92
2023-01-08T18:12:14.325Z,12.91
2023-01-08T18:14:44.149Z,12.85
2023-01-08T18:17:13.332Z,12.88
2023-01-08T18:19:41.482Z,12.86
2023-01-08T18:22:09.588Z,12.88
2023-01-08T18:24:37.689Z,12.81
2023-01-08T18:27:08.584Z,12.73
2023-01-08T18:29:48.256Z,12.59
2023-01-08T18:32:25.588Z,12.48
2023-01-08T18:34:55.078Z,12.51
2023-01-08T18:37:33.988Z,12.48
2023-01-08T18:40:02.096Z,12.41
2023-01-08T18:42:34.164Z,12.43
2023-01-08T18:45:04.786Z,12.43
2023-01-08T18:47:34.280Z,12.45
2023-01-08T19:25:05.033Z,11.74
2023-01-08T19:27:35.808Z,11.85
2023-01-08T19:30:03.891Z,11.70
2023-01-08T19:32:32.003Z,11.69
2023-01-08T19:35:01.482Z,11.74
2023-01-08T19:37:29.516Z,11.71
2023-01-08T19:40:01.120Z,11.60
2023-01-08T19:42:46.847Z,11.60
2023-01-08T19:45:19.150Z,11.54
2023-01-08T19:47:47.425Z,11.57
2023-01-08T19:50:15.517Z,11.59
2023-01-08T19:52:43.637Z,11.53
2023-01-08T19:55:11.774Z,11.42
2023-01-08T19:57:39.927Z,11.41
2023-01-08T20:00:09.507Z,11.39
2023-01-08T20:02:41.240Z,11.44
2023-01-08T20:05:10.394Z,11.45
2023-01-08T20:07:38.868Z,11.42
2023-01-08T20:10:08.137Z,11.46
2023-01-08T20:12:36.213Z,11.53
2023-01-08T20:15:04.837Z,11.51
2023-01-08T20:17:33.261Z,11.43
2023-01-08T20:20:02.697Z,11.46
2023-01-08T20:22:31.185Z,11.45
2023-01-08T20:24:59.237Z,11.48
2023-01-08T20:27:27.296Z,11.37
2023-01-08T20:29:55.338Z,11.29
2023-01-08T20:32:23.618Z,11.31
2023-01-08T20:34:51.686Z,11.43
2023-01-08T20:37:28.572Z,11.30
2023-01-08T20:39:56.734Z,11.28
2023-01-08T20:42:33.374Z,11.19
2023-01-08T20:45:02.387Z,11.25
2023-01-08T20:47:30.473Z,11.00
2023-01-08T20:49:58.547Z,11.25
2023-01-08T20:52:30.267Z,11.13
2023-01-08T20:54:58.601Z,11.11
2023-01-08T20:57:28.180Z,11.20
2023-01-08T20:59:56.434Z,11.29
2023-01-08T21:02:24.538Z,11.26
2023-01-08T21:04:55.066Z,11.29
2023-01-08T21:07:29.993Z,11.12
2023-01-08T21:09:58.350Z,11.04
2023-01-08T21:12:26.563Z,11.16
2023-01-08T21:14:54.747Z,11.13
2023-01-08T21:17:26.711Z,11.15
2023-01-08T21:19:55.032Z,11.11
2023-01-08T21:22:23.202Z,11.23
2023-01-08T21:24:54.785Z,11.26
2023-01-08T21:27:27.827Z,11.20
2023-01-08T21:29:56.163Z,11.08
2023-01-08T21:32:24.326Z,11.07
2023-01-08T21:35:04.988Z,11.12
2023-01-08T21:37:37.031Z,11.18
2023-01-08T21:40:08.066Z,11.20
2023-01-08T21:42:53.453Z,11.15
2023-01-08T21:45:28.093Z,11.11
2023-01-08T21:47:58.473Z,11.25
2023-01-08T21:50:26.722Z,11.16
2023-01-08T21:53:11.987Z,11.19
2023-01-08T21:55:42.194Z,11.09
2023-01-08T21:58:10.329Z,10.95
2023-01-08T22:00:39.650Z,11.04
2023-01-08T22:03:07.810Z,11.18
2023-01-08T22:05:35.822Z,11.14
2023-01-08T22:08:05.315Z,11.08
2023-01-08T22:10:33.403Z,11.15
2023-01-08T22:13:02.855Z,11.16
2023-01-08T22:15:30.898Z,11.14
2023-01-08T22:17:58.902Z,11.08
2023-01-08T22:20:26.920Z,11.04
2023-01-08T22:22:54.984Z,11.28
2023-01-08T22:25:22.995Z,11.16
2023-01-08T22:27:54.223Z,11.26
2023-01-08T22:30:24.060Z,11.15
2023-01-08T22:32:52.083Z,11.23
2023-01-08T22:35:20.121Z,11.27
2023-01-08T22:37:48.161Z,11.22
2023-01-08T22:40:16.539Z,11.36
2023-01-08T22:42:44.534Z,11.32
2023-01-08T22:45:12.732Z,11.49
2023-01-08T22:47:42.120Z,11.44
2023-01-08T22:50:11.441Z,11.40
2023-01-08T22:52:39.532Z,11.39
2023-01-08T22:55:08.377Z,11.17
2023-01-08T22:57:36.403Z,11.17
2023-01-08T23:00:06.950Z,11.16
2023-01-08T23:02:35.040Z,11.27
2023-01-08T23:05:05.386Z,11.16
2023-01-08T23:07:33.424Z,11.27
2023-01-08T23:10:01.501Z,11.13
2023-01-08T23:12:32.292Z,11.34
2023-01-08T23:15:00.331Z,11.27
2023-01-08T23:17:28.361Z,11.33
2023-01-08T23:19:56.418Z,11.24
2023-01-08T23:22:26.029Z,11.28
2023-01-08T23:24:54.072Z,11.33
2023-01-08T23:27:22.084Z,11.40
2023-01-08T23:29:50.132Z,11.38
2023-01-08T23:32:18.170Z,11.37
2023-01-08T23:34:46.204Z,11.49
2023-01-08T23:37:14.330Z,11.78
2023-01-08T23:39:43.836Z,11.82
2023-01-08T23:42:11.895Z,11.70
2023-01-08T23:44:40.094Z,11.63
2023-01-08T23:47:08.540Z,11.61
2023-01-08T23:49:36.699Z,11.70
2023-01-08T23:52:05.047Z,11.69
2023-01-08T23:54:33.062Z,11.62
2023-01-08T23:57:02.453Z,11.69
2023-01-08T23:59:30.567Z,11.66
